sensor_id;sensor_type;location;lat;lon;timestamp;P1;durP1;ratioP1;P2;durP2;ratioP2
19664;SDS011;9980;51.020;7.772;2023-07-16T00:00:02;1.10;;;0.90;;
19664;SDS011;9980;51.020;7.772;2023-07-16T00:02:31;1.87;;;1.27;;
19664;SDS011;9980;51.020;7.772;2023-07-16T00:04:58;1.10;;;1.00;;
19664;SDS011;9980;51.020;7.772;2023-07-16T00:07:25;2.27;;;1.30;;
19664;SDS011;9980;51.020;7.772;2023-07-16T00:09:52;1.47;;;1.17;;
19664;SDS011;9980;51.020;7.772;2023-07-16T00:12:20;1.47;;;1.20;;
19664;SDS011;9980;51.020;7.772;2023-07-16T00:14:47;1.87;;;1.10;;
19664;SDS011;9980;51.020;7.772;2023-07-16T00:17:14;2.30;;;1.10;;
19664;SDS011;9980;51.020;7.772;2023-07-16T00:19:42;2.37;;;1.30;;
19664;SDS011;9980;51.020;7.772;2023-07-16T00:22:09;2.53;;;1.53;;
19664;SDS011;9980;51.020;7.772;2023-07-16T00:24:36;1.70;;;1.33;;
19664;SDS011;9980;51.020;7.772;2023-07-16T00:27:03;1.73;;;1.30;;
19664;SDS011;9980;51.020;7.772;2023-07-16T00:29:30;1.30;;;1.10;;
19664;SDS011;9980;51.020;7.772;2023-07-16T00:31:57;1.87;;;1.40;;
19664;SDS011;9980;51.020;7.772;2023-07-16T00:34:24;1.30;;;1.17;;
19664;SDS011;9980;51.020;7.772;2023-07-16T00:36:51;1.83;;;1.10;;
19664;SDS011;9980;51.020;7.772;2023-07-16T00:39:18;5.53;;;1.40;;
19664;SDS011;9980;51.020;7.772;2023-07-16T00:41:46;2.77;;;1.40;;
19664;SDS011;9980;51.020;7.772;2023-07-16T00:44:14;1.90;;;1.37;;
19664;SDS011;9980;51.020;7.772;2023-07-16T00:46:40;1.70;;;1.40;;
19664;SDS011;9980;51.020;7.772;2023-07-16T00:49:08;1.53;;;1.30;;
19664;SDS011;9980;51.020;7.772;2023-07-16T00:51:35;1.83;;;1.53;;
19664;SDS011;9980;51.020;7.772;2023-07-16T00:54:03;1.57;;;1.03;;
19664;SDS011;9980;51.020;7.772;2023-07-16T00:56:30;1.57;;;1.20;;
19664;SDS011;9980;51.020;7.772;2023-07-16T00:58:58;3.43;;;1.60;;
19664;SDS011;9980;51.020;7.772;2023-07-16T01:01:25;2.50;;;1.50;;
19664;SDS011;9980;51.020;7.772;2023-07-16T01:03:52;1.87;;;1.30;;
19664;SDS011;9980;51.020;7.772;2023-07-16T01:06:26;1.37;;;1.27;;
19664;SDS011;9980;51.020;7.772;2023-07-16T01:09:16;1.47;;;1.20;;
19664;SDS011;9980;51.020;7.772;2023-07-16T01:11:47;2.23;;;1.37;;
19664;SDS011;9980;51.020;7.772;2023-07-16T01:14:16;2.07;;;1.57;;
19664;SDS011;9980;51.020;7.772;2023-07-16T01:16:44;4.30;;;1.40;;
19664;SDS011;9980;51.020;7.772;2023-07-16T01:19:11;2.37;;;1.60;;
19664;SDS011;9980;51.020;7.772;2023-07-16T01:28:17;1.87;;;1.13;;
19664;SDS011;9980;51.020;7.772;2023-07-16T01:31:15;2.53;;;1.13;;
19664;SDS011;9980;51.020;7.772;2023-07-16T01:33:44;3.00;;;1.47;;
19664;SDS011;9980;51.020;7.772;2023-07-16T01:36:12;3.50;;;1.20;;
19664;SDS011;9980;51.020;7.772;2023-07-16T01:38:41;2.67;;;1.43;;
19664;SDS011;9980;51.020;7.772;2023-07-16T01:41:08;4.23;;;1.23;;
19664;SDS011;9980;51.020;7.772;2023-07-16T01:43:36;1.33;;;1.23;;
19664;SDS011;9980;51.020;7.772;2023-07-16T01:46:03;3.13;;;1.47;;
19664;SDS011;9980;51.020;7.772;2023-07-16T01:48:31;1.40;;;1.20;;
19664;SDS011;9980;51.020;7.772;2023-07-16T01:51:02;1.63;;;1.30;;
19664;SDS011;9980;51.020;7.772;2023-07-16T01:53:30;1.60;;;1.50;;
19664;SDS011;9980;51.020;7.772;2023-07-16T01:55:57;1.50;;;1.20;;
19664;SDS011;9980;51.020;7.772;2023-07-16T01:58:28;3.17;;;1.70;;
19664;SDS011;9980;51.020;7.772;2023-07-16T02:00:55;3.73;;;1.73;;
19664;SDS011;9980;51.020;7.772;2023-07-16T02:03:22;1.30;;;1.10;;
19664;SDS011;9980;51.020;7.772;2023-07-16T02:05:49;2.97;;;1.27;;
19664;SDS011;9980;51.020;7.772;2023-07-16T02:08:17;5.50;;;1.40;;
19664;SDS011;9980;51.020;7.772;2023-07-16T02:10:44;3.43;;;1.20;;
19664;SDS011;9980;51.020;7.772;2023-07-16T02:13:14;3.73;;;1.50;;
19664;SDS011;9980;51.020;7.772;2023-07-16T02:15:42;3.97;;;1.20;;
19664;SDS011;9980;51.020;7.772;2023-07-16T02:18:09;3.27;;;1.33;;
19664;SDS011;9980;51.020;7.772;2023-07-16T02:20:37;1.83;;;1.27;;
19664;SDS011;9980;51.020;7.772;2023-07-16T02:23:04;5.93;;;1.90;;
19664;SDS011;9980;51.020;7.772;2023-07-16T02:25:32;2.10;;;1.40;;
19664;SDS011;9980;51.020;7.772;2023-07-16T02:27:59;3.17;;;1.50;;
19664;SDS011;9980;51.020;7.772;2023-07-16T02:30:29;4.83;;;1.80;;
19664;SDS011;9980;51.020;7.772;2023-07-16T02:32:56;2.47;;;1.27;;
19664;SDS011;9980;51.020;7.772;2023-07-16T02:35:23;4.33;;;1.40;;
19664;SDS011;9980;51.020;7.772;2023-07-16T02:37:50;1.63;;;1.30;;
19664;SDS011;9980;51.020;7.772;2023-07-16T02:40:17;3.47;;;1.60;;
19664;SDS011;9980;51.020;7.772;2023-07-16T02:42:44;1.50;;;1.30;;
19664;SDS011;9980;51.020;7.772;2023-07-16T02:45:11;1.83;;;1.30;;
19664;SDS011;9980;51.020;7.772;2023-07-16T02:47:39;3.10;;;1.70;;
19664;SDS011;9980;51.020;7.772;2023-07-16T02:50:06;1.67;;;1.20;;
19664;SDS011;9980;51.020;7.772;2023-07-16T02:52:33;2.17;;;1.40;;
19664;SDS011;9980;51.020;7.772;2023-07-16T02:55:00;2.60;;;1.40;;
19664;SDS011;9980;51.020;7.772;2023-07-16T02:57:28;3.97;;;1.57;;
19664;SDS011;9980;51.020;7.772;2023-07-16T02:59:55;2.60;;;1.60;;
19664;SDS011;9980;51.020;7.772;2023-07-16T03:02:22;3.57;;;1.70;;
19664;SDS011;9980;51.020;7.772;2023-07-16T03:04:49;1.60;;;1.40;;
19664;SDS011;9980;51.020;7.772;2023-07-16T03:07:16;1.20;;;1.10;;
19664;SDS011;9980;51.020;7.772;2023-07-16T03:09:43;2.50;;;1.67;;
19664;SDS011;9980;51.020;7.772;2023-07-16T03:12:10;4.37;;;1.50;;
19664;SDS011;9980;51.020;7.772;2023-07-16T03:14:37;2.77;;;1.40;;
19664;SDS011;9980;51.020;7.772;2023-07-16T03:17:04;1.53;;;1.10;;
19664;SDS011;9980;51.020;7.772;2023-07-16T03:19:33;3.03;;;1.60;;
19664;SDS011;9980;51.020;7.772;2023-07-16T03:21:59;2.70;;;1.60;;
19664;SDS011;9980;51.020;7.772;2023-07-16T03:24:27;3.87;;;1.43;;
19664;SDS011;9980;51.020;7.772;2023-07-16T03:26:54;1.83;;;1.47;;
19664;SDS011;9980;51.020;7.772;2023-07-16T03:29:34;3.30;;;1.73;;
19664;SDS011;9980;51.020;7.772;2023-07-16T03:32:01;2.43;;;1.53;;
19664;SDS011;9980;51.020;7.772;2023-07-16T03:34:29;3.40;;;1.50;;
19664;SDS011;9980;51.020;7.772;2023-07-16T03:36:57;5.00;;;1.50;;
19664;SDS011;9980;51.020;7.772;2023-07-16T03:39:24;2.73;;;1.43;;
19664;SDS011;9980;51.020;7.772;2023-07-16T03:41:53;3.20;;;1.57;;
19664;SDS011;9980;51.020;7.772;2023-07-16T03:44:20;2.83;;;1.40;;
19664;SDS011;9980;51.020;7.772;2023-07-16T03:46:46;3.90;;;1.40;;
19664;SDS011;9980;51.020;7.772;2023-07-16T03:49:13;3.77;;;1.50;;
19664;SDS011;9980;51.020;7.772;2023-07-16T03:51:40;5.30;;;1.70;;
19664;SDS011;9980;51.020;7.772;2023-07-16T03:54:08;2.90;;;1.70;;
19664;SDS011;9980;51.020;7.772;2023-07-16T03:56:35;1.93;;;1.20;;
19664;SDS011;9980;51.020;7.772;2023-07-16T03:59:02;1.97;;;1.43;;
19664;SDS011;9980;51.020;7.772;2023-07-16T04:01:30;1.97;;;1.70;;
19664;SDS011;9980;51.020;7.772;2023-07-16T04:03:57;2.37;;;1.50;;
19664;SDS011;9980;51.020;7.772;2023-07-16T04:06:24;2.17;;;1.33;;
19664;SDS011;9980;51.020;7.772;2023-07-16T04:08:51;6.37;;;2.00;;
19664;SDS011;9980;51.020;7.772;2023-07-16T04:11:18;3.17;;;1.73;;
19664;SDS011;9980;51.020;7.772;2023-07-16T04:13:45;3.00;;;1.43;;
19664;SDS011;9980;51.020;7.772;2023-07-16T04:16:12;1.97;;;1.53;;
19664;SDS011;9980;51.020;7.772;2023-07-16T04:18:39;4.43;;;1.50;;
19664;SDS011;9980;51.020;7.772;2023-07-16T04:21:06;1.77;;;1.50;;
19664;SDS011;9980;51.020;7.772;2023-07-16T04:23:35;5.00;;;1.63;;
19664;SDS011;9980;51.020;7.772;2023-07-16T04:26:02;2.40;;;1.50;;
19664;SDS011;9980;51.020;7.772;2023-07-16T04:28:29;3.40;;;1.40;;
19664;SDS011;9980;51.020;7.772;2023-07-16T04:30:56;5.90;;;1.93;;
19664;SDS011;9980;51.020;7.772;2023-07-16T04:33:23;2.80;;;1.70;;
19664;SDS011;9980;51.020;7.772;2023-07-16T04:35:50;3.17;;;1.67;;
19664;SDS011;9980;51.020;7.772;2023-07-16T04:38:17;2.63;;;1.70;;
19664;SDS011;9980;51.020;7.772;2023-07-16T04:40:44;3.00;;;1.83;;
19664;SDS011;9980;51.020;7.772;2023-07-16T04:43:11;4.63;;;1.60;;
19664;SDS011;9980;51.020;7.772;2023-07-16T04:45:38;2.73;;;1.63;;
19664;SDS011;9980;51.020;7.772;2023-07-16T04:48:06;2.53;;;1.43;;
19664;SDS011;9980;51.020;7.772;2023-07-16T04:50:33;3.13;;;1.87;;
19664;SDS011;9980;51.020;7.772;2023-07-16T04:53:00;3.90;;;1.67;;
19664;SDS011;9980;51.020;7.772;2023-07-16T04:55:27;3.77;;;1.67;;
19664;SDS011;9980;51.020;7.772;2023-07-16T04:57:54;4.47;;;2.00;;
19664;SDS011;9980;51.020;7.772;2023-07-16T05:00:23;2.70;;;1.50;;
19664;SDS011;9980;51.020;7.772;2023-07-16T05:02:50;3.53;;;1.70;;
19664;SDS011;9980;51.020;7.772;2023-07-16T05:05:17;3.53;;;1.70;;
19664;SDS011;9980;51.020;7.772;2023-07-16T05:07:44;3.60;;;1.60;;
19664;SDS011;9980;51.020;7.772;2023-07-16T05:10:11;2.20;;;1.73;;
19664;SDS011;9980;51.020;7.772;2023-07-16T05:12:38;2.80;;;1.73;;
19664;SDS011;9980;51.020;7.772;2023-07-16T05:15:06;2.80;;;1.57;;
19664;SDS011;9980;51.020;7.772;2023-07-16T05:17:33;3.47;;;1.57;;
19664;SDS011;9980;51.020;7.772;2023-07-16T05:20:00;1.93;;;1.50;;
19664;SDS011;9980;51.020;7.772;2023-07-16T05:22:28;4.23;;;1.80;;
19664;SDS011;9980;51.020;7.772;2023-07-16T05:24:54;3.80;;;1.83;;
19664;SDS011;9980;51.020;7.772;2023-07-16T05:27:21;3.60;;;1.70;;
19664;SDS011;9980;51.020;7.772;2023-07-16T05:29:48;5.20;;;1.80;;
19664;SDS011;9980;51.020;7.772;2023-07-16T05:32:15;2.97;;;1.80;;
19664;SDS011;9980;51.020;7.772;2023-07-16T05:34:42;3.63;;;1.77;;
19664;SDS011;9980;51.020;7.772;2023-07-16T05:37:10;5.53;;;1.50;;
19664;SDS011;9980;51.020;7.772;2023-07-16T05:39:37;3.40;;;1.80;;
19664;SDS011;9980;51.020;7.772;2023-07-16T05:42:04;5.77;;;2.10;;
19664;SDS011;9980;51.020;7.772;2023-07-16T05:44:32;5.07;;;2.17;;
19664;SDS011;9980;51.020;7.772;2023-07-16T05:46:59;3.97;;;2.03;;
19664;SDS011;9980;51.020;7.772;2023-07-16T05:49:26;5.03;;;2.03;;
19664;SDS011;9980;51.020;7.772;2023-07-16T05:51:53;4.17;;;2.63;;
19664;SDS011;9980;51.020;7.772;2023-07-16T05:54:21;2.33;;;1.83;;
19664;SDS011;9980;51.020;7.772;2023-07-16T05:56:49;6.83;;;2.43;;
19664;SDS011;9980;51.020;7.772;2023-07-16T05:59:16;3.20;;;1.97;;
19664;SDS011;9980;51.020;7.772;2023-07-16T06:01:43;5.60;;;2.30;;
19664;SDS011;9980;51.020;7.772;2023-07-16T06:04:10;3.37;;;2.20;;
19664;SDS011;9980;51.020;7.772;2023-07-16T06:06:37;6.17;;;2.70;;
19664;SDS011;9980;51.020;7.772;2023-07-16T06:09:04;3.77;;;2.73;;
19664;SDS011;9980;51.020;7.772;2023-07-16T06:11:32;3.80;;;2.10;;
19664;SDS011;9980;51.020;7.772;2023-07-16T06:13:58;3.27;;;2.20;;
19664;SDS011;9980;51.020;7.772;2023-07-16T06:16:25;5.30;;;2.30;;
19664;SDS011;9980;51.020;7.772;2023-07-16T06:18:53;4.97;;;2.00;;
19664;SDS011;9980;51.020;7.772;2023-07-16T06:21:20;4.07;;;2.43;;
19664;SDS011;9980;51.020;7.772;2023-07-16T06:23:47;4.23;;;2.10;;
19664;SDS011;9980;51.020;7.772;2023-07-16T06:26:15;4.60;;;2.70;;
19664;SDS011;9980;51.020;7.772;2023-07-16T06:28:42;3.57;;;2.47;;
19664;SDS011;9980;51.020;7.772;2023-07-16T06:31:10;4.33;;;2.80;;
19664;SDS011;9980;51.020;7.772;2023-07-16T06:33:37;4.30;;;2.33;;
19664;SDS011;9980;51.020;7.772;2023-07-16T06:36:04;4.27;;;2.67;;
19664;SDS011;9980;51.020;7.772;2023-07-16T06:38:31;7.03;;;3.20;;
19664;SDS011;9980;51.020;7.772;2023-07-16T06:40:58;5.17;;;3.07;;
19664;SDS011;9980;51.020;7.772;2023-07-16T06:43:25;4.43;;;3.03;;
19664;SDS011;9980;51.020;7.772;2023-07-16T06:45:52;6.77;;;2.53;;
19664;SDS011;9980;51.020;7.772;2023-07-16T06:48:19;3.73;;;2.80;;
19664;SDS011;9980;51.020;7.772;2023-07-16T06:50:46;5.07;;;3.03;;
19664;SDS011;9980;51.020;7.772;2023-07-16T06:53:13;5.43;;;2.97;;
19664;SDS011;9980;51.020;7.772;2023-07-16T06:55:40;7.80;;;3.40;;
19664;SDS011;9980;51.020;7.772;2023-07-16T06:58:10;6.90;;;3.03;;
19664;SDS011;9980;51.020;7.772;2023-07-16T07:00:37;3.77;;;2.80;;
19664;SDS011;9980;51.020;7.772;2023-07-16T07:03:04;5.83;;;3.27;;
19664;SDS011;9980;51.020;7.772;2023-07-16T07:05:31;7.43;;;3.50;;
19664;SDS011;9980;51.020;7.772;2023-07-16T07:07:58;7.77;;;3.20;;
19664;SDS011;9980;51.020;7.772;2023-07-16T07:10:25;6.23;;;3.37;;
19664;SDS011;9980;51.020;7.772;2023-07-16T07:12:52;9.23;;;3.77;;
19664;SDS011;9980;51.020;7.772;2023-07-16T07:15:19;8.27;;;3.67;;
19664;SDS011;9980;51.020;7.772;2023-07-16T07:17:46;4.00;;;3.10;;
19664;SDS011;9980;51.020;7.772;2023-07-16T07:20:15;5.23;;;3.33;;
19664;SDS011;9980;51.020;7.772;2023-07-16T07:22:42;6.70;;;3.17;;
19664;SDS011;9980;51.020;7.772;2023-07-16T07:25:09;4.83;;;2.77;;
19664;SDS011;9980;51.020;7.772;2023-07-16T07:27:36;5.40;;;3.33;;
19664;SDS011;9980;51.020;7.772;2023-07-16T07:30:03;4.90;;;3.53;;
19664;SDS011;9980;51.020;7.772;2023-07-16T07:32:31;8.63;;;3.40;;
19664;SDS011;9980;51.020;7.772;2023-07-16T07:34:58;4.97;;;2.83;;
19664;SDS011;9980;51.020;7.772;2023-07-16T07:37:28;6.63;;;3.30;;
19664;SDS011;9980;51.020;7.772;2023-07-16T07:39:56;9.53;;;3.57;;
19664;SDS011;9980;51.020;7.772;2023-07-16T07:42:25;4.83;;;3.20;;
19664;SDS011;9980;51.020;7.772;2023-07-16T07:44:56;5.80;;;3.60;;
19664;SDS011;9980;51.020;7.772;2023-07-16T07:47:23;5.10;;;2.97;;
19664;SDS011;9980;51.020;7.772;2023-07-16T07:49:51;6.88;;;3.00;;
19664;SDS011;9980;51.020;7.772;2023-07-16T07:52:19;10.07;;;3.03;;
19664;SDS011;9980;51.020;7.772;2023-07-16T07:54:46;4.55;;;2.97;;
19664;SDS011;9980;51.020;7.772;2023-07-16T07:57:13;5.50;;;3.42;;
19664;SDS011;9980;51.020;7.772;2023-07-16T07:59:43;6.05;;;3.08;;
19664;SDS011;9980;51.020;7.772;2023-07-16T08:02:10;4.10;;;3.05;;
19664;SDS011;9980;51.020;7.772;2023-07-16T08:04:37;3.72;;;2.90;;
19664;SDS011;9980;51.020;7.772;2023-07-16T08:07:05;3.05;;;2.75;;
19664;SDS011;9980;51.020;7.772;2023-07-16T08:09:32;3.75;;;3.10;;
19664;SDS011;9980;51.020;7.772;2023-07-16T08:11:59;6.90;;;2.92;;
19664;SDS011;9980;51.020;7.772;2023-07-16T08:14:26;7.95;;;2.90;;
19664;SDS011;9980;51.020;7.772;2023-07-16T08:16:53;4.43;;;3.15;;
19664;SDS011;9980;51.020;7.772;2023-07-16T08:19:20;3.17;;;2.72;;
19664;SDS011;9980;51.020;7.772;2023-07-16T08:21:47;7.45;;;3.33;;
19664;SDS011;9980;51.020;7.772;2023-07-16T08:24:14;5.53;;;4.22;;
19664;SDS011;9980;51.020;7.772;2023-07-16T08:26:41;8.63;;;3.55;;
19664;SDS011;9980;51.020;7.772;2023-07-16T08:29:08;5.18;;;3.20;;
19664;SDS011;9980;51.020;7.772;2023-07-16T08:31:35;4.60;;;2.90;;
19664;SDS011;9980;51.020;7.772;2023-07-16T08:34:02;4.20;;;3.13;;
19664;SDS011;9980;51.020;7.772;2023-07-16T08:36:30;3.95;;;3.05;;
19664;SDS011;9980;51.020;7.772;2023-07-16T08:38:59;4.22;;;2.92;;
19664;SDS011;9980;51.020;7.772;2023-07-16T08:41:26;4.70;;;3.42;;
19664;SDS011;9980;51.020;7.772;2023-07-16T08:43:54;4.10;;;3.22;;
19664;SDS011;9980;51.020;7.772;2023-07-16T08:46:22;7.78;;;3.65;;
19664;SDS011;9980;51.020;7.772;2023-07-16T08:48:50;5.85;;;3.63;;
19664;SDS011;9980;51.020;7.772;2023-07-16T08:51:18;6.80;;;3.47;;
19664;SDS011;9980;51.020;7.772;2023-07-16T08:53:47;5.20;;;3.33;;
19664;SDS011;9980;51.020;7.772;2023-07-16T08:56:15;5.40;;;3.95;;
19664;SDS011;9980;51.020;7.772;2023-07-16T08:58:43;5.00;;;3.60;;
19664;SDS011;9980;51.020;7.772;2023-07-16T09:01:11;6.95;;;4.07;;
19664;SDS011;9980;51.020;7.772;2023-07-16T09:03:39;5.03;;;3.50;;
19664;SDS011;9980;51.020;7.772;2023-07-16T09:06:06;3.65;;;3.20;;
19664;SDS011;9980;51.020;7.772;2023-07-16T09:08:33;4.63;;;3.67;;
19664;SDS011;9980;51.020;7.772;2023-07-16T09:11:00;3.97;;;3.53;;
19664;SDS011;9980;51.020;7.772;2023-07-16T09:13:28;5.55;;;3.55;;
19664;SDS011;9980;51.020;7.772;2023-07-16T09:15:58;3.63;;;3.13;;
19664;SDS011;9980;51.020;7.772;2023-07-16T09:18:26;7.13;;;3.85;;
19664;SDS011;9980;51.020;7.772;2023-07-16T09:20:54;4.95;;;3.80;;
19664;SDS011;9980;51.020;7.772;2023-07-16T09:23:29;7.65;;;3.88;;
19664;SDS011;9980;51.020;7.772;2023-07-16T09:25:57;5.63;;;4.07;;
19664;SDS011;9980;51.020;7.772;2023-07-16T09:28:25;4.13;;;3.72;;
19664;SDS011;9980;51.020;7.772;2023-07-16T09:30:52;4.30;;;3.67;;
19664;SDS011;9980;51.020;7.772;2023-07-16T09:33:20;6.25;;;3.63;;
19664;SDS011;9980;51.020;7.772;2023-07-16T09:35:52;4.38;;;3.55;;
19664;SDS011;9980;51.020;7.772;2023-07-16T09:38:19;4.85;;;3.55;;
19664;SDS011;9980;51.020;7.772;2023-07-16T09:40:49;4.13;;;3.42;;
19664;SDS011;9980;51.020;7.772;2023-07-16T09:43:18;3.88;;;3.33;;
19664;SDS011;9980;51.020;7.772;2023-07-16T09:45:47;4.70;;;3.05;;
19664;SDS011;9980;51.020;7.772;2023-07-16T09:48:14;6.95;;;3.30;;
19664;SDS011;9980;51.020;7.772;2023-07-16T09:50:44;6.80;;;3.90;;
19664;SDS011;9980;51.020;7.772;2023-07-16T09:53:19;5.60;;;3.63;;
19664;SDS011;9980;51.020;7.772;2023-07-16T09:55:47;4.78;;;3.20;;
19664;SDS011;9980;51.020;7.772;2023-07-16T09:58:16;4.50;;;3.33;;
19664;SDS011;9980;51.020;7.772;2023-07-16T10:00:49;4.03;;;3.63;;
19664;SDS011;9980;51.020;7.772;2023-07-16T10:03:17;5.45;;;3.53;;
19664;SDS011;9980;51.020;7.772;2023-07-16T10:05:44;4.78;;;3.85;;
19664;SDS011;9980;51.020;7.772;2023-07-16T10:08:15;4.82;;;3.45;;
19664;SDS011;9980;51.020;7.772;2023-07-16T10:10:45;5.05;;;3.45;;
19664;SDS011;9980;51.020;7.772;2023-07-16T10:13:22;4.30;;;3.60;;
19664;SDS011;9980;51.020;7.772;2023-07-16T10:15:54;6.40;;;3.33;;
19664;SDS011;9980;51.020;7.772;2023-07-16T10:18:26;4.47;;;3.30;;
19664;SDS011;9980;51.020;7.772;2023-07-16T10:21:01;5.72;;;3.58;;
19664;SDS011;9980;51.020;7.772;2023-07-16T10:23:36;6.55;;;3.28;;
19664;SDS011;9980;51.020;7.772;2023-07-16T10:26:09;3.85;;;3.05;;
19664;SDS011;9980;51.020;7.772;2023-07-16T10:28:45;4.68;;;3.10;;
19664;SDS011;9980;51.020;7.772;2023-07-16T10:31:17;4.05;;;3.10;;
19664;SDS011;9980;51.020;7.772;2023-07-16T10:36:49;4.43;;;3.03;;
19664;SDS011;9980;51.020;7.772;2023-07-16T10:39:17;7.78;;;2.75;;
19664;SDS011;9980;51.020;7.772;2023-07-16T10:41:44;3.90;;;2.88;;
19664;SDS011;9980;51.020;7.772;2023-07-16T10:44:14;5.28;;;2.97;;
19664;SDS011;9980;51.020;7.772;2023-07-16T10:46:44;5.85;;;3.08;;
19664;SDS011;9980;51.020;7.772;2023-07-16T10:49:11;5.38;;;2.88;;
19664;SDS011;9980;51.020;7.772;2023-07-16T10:51:38;3.50;;;2.60;;
19664;SDS011;9980;51.020;7.772;2023-07-16T10:54:05;3.65;;;2.55;;
19664;SDS011;9980;51.020;7.772;2023-07-16T10:56:35;4.28;;;3.25;;
19664;SDS011;9980;51.020;7.772;2023-07-16T10:59:03;3.70;;;2.83;;
19664;SDS011;9980;51.020;7.772;2023-07-16T11:01:32;5.18;;;2.97;;
19664;SDS011;9980;51.020;7.772;2023-07-16T11:04:00;3.83;;;2.60;;
19664;SDS011;9980;51.020;7.772;2023-07-16T11:06:27;4.53;;;3.15;;
19664;SDS011;9980;51.020;7.772;2023-07-16T11:08:54;2.83;;;2.47;;
19664;SDS011;9980;51.020;7.772;2023-07-16T11:11:32;4.72;;;2.72;;
19664;SDS011;9980;51.020;7.772;2023-07-16T11:13:59;3.42;;;2.72;;
19664;SDS011;9980;51.020;7.772;2023-07-16T11:16:26;4.38;;;2.70;;
19664;SDS011;9980;51.020;7.772;2023-07-16T11:18:53;4.18;;;2.60;;
19664;SDS011;9980;51.020;7.772;2023-07-16T11:21:20;5.68;;;2.92;;
19664;SDS011;9980;51.020;7.772;2023-07-16T11:23:47;7.25;;;2.80;;
19664;SDS011;9980;51.020;7.772;2023-07-16T11:26:14;3.78;;;2.88;;
19664;SDS011;9980;51.020;7.772;2023-07-16T11:28:42;4.72;;;3.15;;
19664;SDS011;9980;51.020;7.772;2023-07-16T11:31:15;3.22;;;2.65;;
19664;SDS011;9980;51.020;7.772;2023-07-16T11:33:47;3.55;;;2.60;;
19664;SDS011;9980;51.020;7.772;2023-07-16T11:36:16;4.75;;;3.20;;
19664;SDS011;9980;51.020;7.772;2023-07-16T11:38:43;3.85;;;2.90;;
19664;SDS011;9980;51.020;7.772;2023-07-16T11:41:11;4.63;;;2.85;;
19664;SDS011;9980;51.020;7.772;2023-07-16T11:43:40;4.32;;;3.08;;
19664;SDS011;9980;51.020;7.772;2023-07-16T11:46:14;2.65;;;2.38;;
19664;SDS011;9980;51.020;7.772;2023-07-16T11:48:44;4.13;;;2.58;;
19664;SDS011;9980;51.020;7.772;2023-07-16T11:51:11;7.03;;;3.35;;
19664;SDS011;9980;51.020;7.772;2023-07-16T11:53:38;4.07;;;2.80;;
19664;SDS011;9980;51.020;7.772;2023-07-16T11:56:05;4.55;;;2.22;;
19664;SDS011;9980;51.020;7.772;2023-07-16T11:58:33;3.90;;;2.45;;
19664;SDS011;9980;51.020;7.772;2023-07-16T12:01:00;4.65;;;2.20;;
19664;SDS011;9980;51.020;7.772;2023-07-16T12:03:27;5.57;;;3.10;;
19664;SDS011;9980;51.020;7.772;2023-07-16T12:05:55;6.00;;;3.15;;
19664;SDS011;9980;51.020;7.772;2023-07-16T12:08:22;3.08;;;2.63;;
19664;SDS011;9980;51.020;7.772;2023-07-16T12:10:49;3.40;;;2.65;;
19664;SDS011;9980;51.020;7.772;2023-07-16T12:13:16;3.78;;;2.40;;
19664;SDS011;9980;51.020;7.772;2023-07-16T12:15:43;3.70;;;2.58;;
19664;SDS011;9980;51.020;7.772;2023-07-16T12:18:10;3.85;;;2.40;;
19664;SDS011;9980;51.020;7.772;2023-07-16T12:20:37;4.15;;;2.40;;
19664;SDS011;9980;51.020;7.772;2023-07-16T12:23:05;4.47;;;2.63;;
19664;SDS011;9980;51.020;7.772;2023-07-16T12:25:32;3.17;;;2.70;;
19664;SDS011;9980;51.020;7.772;2023-07-16T12:28:00;3.08;;;2.75;;
19664;SDS011;9980;51.020;7.772;2023-07-16T12:30:28;3.85;;;2.88;;
19664;SDS011;9980;51.020;7.772;2023-07-16T12:32:55;4.68;;;2.70;;
19664;SDS011;9980;51.020;7.772;2023-07-16T12:35:22;4.50;;;2.60;;
19664;SDS011;9980;51.020;7.772;2023-07-16T12:37:49;5.20;;;2.67;;
19664;SDS011;9980;51.020;7.772;2023-07-16T12:40:16;5.72;;;3.05;;
19664;SDS011;9980;51.020;7.772;2023-07-16T12:42:43;3.95;;;2.88;;
19664;SDS011;9980;51.020;7.772;2023-07-16T12:45:10;4.13;;;2.83;;
19664;SDS011;9980;51.020;7.772;2023-07-16T12:47:37;5.30;;;2.90;;
19664;SDS011;9980;51.020;7.772;2023-07-16T12:50:05;5.60;;;2.78;;
19664;SDS011;9980;51.020;7.772;2023-07-16T12:52:33;6.75;;;2.55;;
19664;SDS011;9980;51.020;7.772;2023-07-16T12:55:00;4.55;;;2.70;;
19664;SDS011;9980;51.020;7.772;2023-07-16T12:57:28;9.90;;;6.95;;
19664;SDS011;9980;51.020;7.772;2023-07-16T12:59:55;4.25;;;3.00;;
19664;SDS011;9980;51.020;7.772;2023-07-16T13:02:22;7.95;;;6.07;;
19664;SDS011;9980;51.020;7.772;2023-07-16T13:04:48;5.03;;;3.80;;
19664;SDS011;9980;51.020;7.772;2023-07-16T13:07:15;5.00;;;2.90;;
19664;SDS011;9980;51.020;7.772;2023-07-16T13:09:42;3.55;;;2.50;;
19664;SDS011;9980;51.020;7.772;2023-07-16T13:12:09;4.50;;;2.90;;
19664;SDS011;9980;51.020;7.772;2023-07-16T13:14:36;6.22;;;3.00;;
19664;SDS011;9980;51.020;7.772;2023-07-16T13:17:03;3.35;;;2.58;;
19664;SDS011;9980;51.020;7.772;2023-07-16T13:19:31;3.35;;;2.50;;
19664;SDS011;9980;51.020;7.772;2023-07-16T13:21:58;4.35;;;2.72;;
19664;SDS011;9980;51.020;7.772;2023-07-16T13:24:25;4.25;;;2.47;;
19664;SDS011;9980;51.020;7.772;2023-07-16T13:26:52;3.08;;;2.40;;
19664;SDS011;9980;51.020;7.772;2023-07-16T13:29:19;4.30;;;2.63;;
19664;SDS011;9980;51.020;7.772;2023-07-16T13:31:46;3.15;;;2.20;;
19664;SDS011;9980;51.020;7.772;2023-07-16T13:34:13;5.68;;;2.05;;
19664;SDS011;9980;51.020;7.772;2023-07-16T13:36:40;2.88;;;2.35;;
19664;SDS011;9980;51.020;7.772;2023-07-16T13:39:07;4.00;;;2.30;;
19664;SDS011;9980;51.020;7.772;2023-07-16T13:41:34;7.45;;;2.35;;
19664;SDS011;9980;51.020;7.772;2023-07-16T13:44:02;4.07;;;2.65;;
19664;SDS011;9980;51.020;7.772;2023-07-16T13:46:29;4.15;;;2.15;;
19664;SDS011;9980;51.020;7.772;2023-07-16T13:48:56;2.53;;;2.25;;
19664;SDS011;9980;51.020;7.772;2023-07-16T13:51:25;3.00;;;2.45;;
19664;SDS011;9980;51.020;7.772;2023-07-16T13:53:52;4.35;;;2.47;;
19664;SDS011;9980;51.020;7.772;2023-07-16T13:56:19;4.15;;;2.53;;
19664;SDS011;9980;51.020;7.772;2023-07-16T13:58:46;4.82;;;2.40;;
19664;SDS011;9980;51.020;7.772;2023-07-16T14:01:14;5.03;;;2.67;;
19664;SDS011;9980;51.020;7.772;2023-07-16T14:03:41;3.40;;;2.25;;
19664;SDS011;9980;51.020;7.772;2023-07-16T14:06:08;2.83;;;2.40;;
19664;SDS011;9980;51.020;7.772;2023-07-16T14:08:35;3.63;;;2.40;;
19664;SDS011;9980;51.020;7.772;2023-07-16T14:11:02;3.88;;;2.60;;
19664;SDS011;9980;51.020;7.772;2023-07-16T14:13:30;3.63;;;2.50;;
19664;SDS011;9980;51.020;7.772;2023-07-16T14:15:57;3.17;;;2.33;;
19664;SDS011;9980;51.020;7.772;2023-07-16T14:18:24;3.20;;;2.22;;
19664;SDS011;9980;51.020;7.772;2023-07-16T14:20:51;2.80;;;2.08;;
19664;SDS011;9980;51.020;7.772;2023-07-16T14:23:18;2.60;;;2.08;;
19664;SDS011;9980;51.020;7.772;2023-07-16T14:25:45;4.20;;;2.30;;
19664;SDS011;9980;51.020;7.772;2023-07-16T14:28:12;4.07;;;2.30;;
19664;SDS011;9980;51.020;7.772;2023-07-16T14:30:39;2.35;;;2.15;;
19664;SDS011;9980;51.020;7.772;2023-07-16T14:33:07;4.00;;;2.20;;
19664;SDS011;9980;51.020;7.772;2023-07-16T14:35:34;3.67;;;2.40;;
19664;SDS011;9980;51.020;7.772;2023-07-16T14:38:04;3.10;;;2.20;;
19664;SDS011;9980;51.020;7.772;2023-07-16T14:40:31;3.90;;;2.08;;
19664;SDS011;9980;51.020;7.772;2023-07-16T14:42:59;4.88;;;2.30;;
19664;SDS011;9980;51.020;7.772;2023-07-16T14:45:26;3.65;;;2.00;;
19664;SDS011;9980;51.020;7.772;2023-07-16T14:47:53;4.82;;;2.15;;
19664;SDS011;9980;51.020;7.772;2023-07-16T14:50:20;3.75;;;2.03;;
19664;SDS011;9980;51.020;7.772;2023-07-16T14:52:50;3.13;;;2.30;;
19664;SDS011;9980;51.020;7.772;2023-07-16T14:55:17;3.28;;;2.60;;
19664;SDS011;9980;51.020;7.772;2023-07-16T14:57:44;3.58;;;2.30;;
19664;SDS011;9980;51.020;7.772;2023-07-16T15:00:11;3.33;;;2.03;;
19664;SDS011;9980;51.020;7.772;2023-07-16T15:02:40;4.88;;;2.53;;
19664;SDS011;9980;51.020;7.772;2023-07-16T15:05:08;3.85;;;2.35;;
19664;SDS011;9980;51.020;7.772;2023-07-16T15:07:36;4.82;;;2.55;;
19664;SDS011;9980;51.020;7.772;2023-07-16T15:10:03;3.67;;;2.20;;
19664;SDS011;9980;51.020;7.772;2023-07-16T15:12:31;4.03;;;2.13;;